createdAt,value
2023-01-19T00:00:51.000Z,12.6
2023-01-19T00:04:19.000Z,14.1
2023-01-19T00:07:47.000Z,10.4
2023-01-19T00:10:36.000Z,12.2
2023-01-19T00:14:04.000Z,17.9
2023-01-19T00:17:32.000Z,22.3
2023-01-19T00:21:00.000Z,21.3
2023-01-19T00:24:28.000Z,30
2023-01-19T00:27:56.000Z,33.8
2023-01-19T00:31:24.000Z,19.6
2023-01-19T00:34:52.000Z,19.1
2023-01-19T00:38:19.000Z,21.4
2023-01-19T00:41:47.000Z,18
2023-01-19T00:45:15.000Z,18.3
2023-01-19T00:48:05.000Z,17.3
2023-01-19T00:51:32.000Z,13.4
2023-01-19T00:55:00.000Z,14.4
2023-01-19T00:58:28.000Z,14.6
2023-01-19T01:01:56.000Z,13.8
2023-01-19T01:05:25.000Z,14.5
2023-01-19T01:08:53.000Z,13.4
2023-01-19T01:12:20.000Z,13.8
2023-01-19T01:15:49.000Z,11.1
2023-01-19T01:19:17.000Z,11.5
2023-01-19T01:22:45.000Z,13.4
2023-01-19T01:25:34.000Z,14.7
2023-01-19T01:29:02.000Z,13.1
2023-01-19T01:32:30.000Z,13
2023-01-19T01:35:58.000Z,13.3
2023-01-19T01:39:26.000Z,12.8
2023-01-19T01:42:54.000Z,13.8
2023-01-19T01:46:22.000Z,15.8
2023-01-19T01:49:50.000Z,15.4
2023-01-19T01:53:18.000Z,15.8
2023-01-19T01:56:46.000Z,14.4
2023-01-19T02:00:14.000Z,16.1
2023-01-19T02:03:03.000Z,13.2
2023-01-19T02:06:31.000Z,12.6
2023-01-19T02:09:59.000Z,12.9
2023-01-19T02:13:27.000Z,14.2
2023-01-19T02:16:55.000Z,15.1
2023-01-19T02:20:23.000Z,13.3
2023-01-19T02:23:50.000Z,15
2023-01-19T02:27:18.000Z,12.3
2023-01-19T02:30:46.000Z,13.9
2023-01-19T02:34:14.000Z,15.2
2023-01-19T02:37:42.000Z,13.1
2023-01-19T02:40:31.000Z,13.6
2023-01-19T02:43:59.000Z,13.4
2023-01-19T02:47:27.000Z,14
2023-01-19T02:50:55.000Z,14
2023-01-19T02:54:23.000Z,14.6
2023-01-19T02:57:51.000Z,13.1
2023-01-19T03:01:18.000Z,13.1
2023-01-19T03:04:47.000Z,13
2023-01-19T03:08:15.000Z,14.4
2023-01-19T03:11:42.000Z,13.8
2023-01-19T03:15:10.000Z,13.8
2023-01-19T03:18:00.000Z,15.7
2023-01-19T03:21:28.000Z,16.6
2023-01-19T03:24:56.000Z,19.4
2023-01-19T03:28:24.000Z,19.3
2023-01-19T03:31:52.000Z,22.1
2023-01-19T03:35:20.000Z,23.3
2023-01-19T03:38:48.000Z,22.6
2023-01-19T03:42:16.000Z,21.8
2023-01-19T03:45:43.000Z,21.4
2023-01-19T03:49:11.000Z,22.2
2023-01-19T03:52:39.000Z,21.1
2023-01-19T03:55:29.000Z,20.8
2023-01-19T03:58:57.000Z,20.4
2023-01-19T04:02:25.000Z,19.9
2023-01-19T04:05:52.000Z,19.8
2023-01-19T04:09:20.000Z,21.6
2023-01-19T04:12:48.000Z,20.7
2023-01-19T04:16:16.000Z,23.4
2023-01-19T04:19:44.000Z,24.7
2023-01-19T04:23:12.000Z,23.9
2023-01-19T04:26:40.000Z,22.7
2023-01-19T04:30:08.000Z,23.3
2023-01-19T04:32:57.000Z,24.1
2023-01-19T04:36:25.000Z,24.1
2023-01-19T04:39:53.000Z,23.4
2023-01-19T04:43:21.000Z,23.2
2023-01-19T04:46:48.000Z,22
2023-01-19T04:50:16.000Z,24.1
2023-01-19T04:53:44.000Z,24.1
2023-01-19T04:57:12.000Z,24.2
2023-01-19T05:00:40.000Z,23.3
2023-01-19T05:04:08.000Z,23
2023-01-19T05:07:36.000Z,22.4
2023-01-19T05:10:25.000Z,23.6
2023-01-19T05:13:52.000Z,25.3
2023-01-19T05:17:20.000Z,24.6
2023-01-19T05:20:48.000Z,28.2
2023-01-19T05:24:16.000Z,27.7
2023-01-19T05:27:44.000Z,24.2
2023-01-19T05:31:12.000Z,24.4
2023-01-19T05:34:40.000Z,25
2023-01-19T05:38:08.000Z,25.6
2023-01-19T05:41:41.000Z,26.4
2023-01-19T05:45:09.000Z,26.1
2023-01-19T05:47:58.000Z,25
2023-01-19T05:51:26.000Z,26.4
2023-01-19T05:54:55.000Z,23.7
2023-01-19T05:58:23.000Z,25.9
2023-01-19T06:01:51.000Z,27.4
2023-01-19T06:05:19.000Z,26.4
2023-01-19T06:08:47.000Z,25.8
2023-01-19T06:12:15.000Z,27.4
2023-01-19T06:15:43.000Z,25.7
2023-01-19T06:19:10.000Z,26.1
2023-01-19T06:22:38.000Z,25.1
2023-01-19T06:25:27.000Z,25.5
2023-01-19T06:28:55.000Z,24.5
2023-01-19T06:32:23.000Z,22.3
2023-01-19T06:35:51.000Z,21.9
2023-01-19T06:39:19.000Z,24.4
2023-01-19T06:42:47.000Z,23.3
2023-01-19T06:46:14.000Z,25.1
2023-01-19T06:49:42.000Z,22.7
2023-01-19T06:53:10.000Z,23.3
2023-01-19T06:56:38.000Z,23.9
2023-01-19T07:00:06.000Z,21.3
2023-01-19T07:02:55.000Z,21.3
2023-01-19T07:06:24.000Z,17.7
2023-01-19T07:09:52.000Z,20.3
2023-01-19T07:13:29.000Z,22.4
2023-01-19T07:16:57.000Z,22.8
2023-01-19T07:20:24.000Z,20.8
2023-01-19T07:23:52.000Z,21.3
2023-01-19T07:27:20.000Z,21.6
2023-01-19T07:30:48.000Z,21
2023-01-19T07:34:16.000Z,23.6
2023-01-19T07:37:44.000Z,23.1
2023-01-19T07:40:33.000Z,23
2023-01-19T07:44:01.000Z,21.9
2023-01-19T07:47:29.000Z,20.4
2023-01-19T07:50:57.000Z,19.4
2023-01-19T07:54:25.000Z,18
2023-01-19T07:57:53.000Z,20.5
2023-01-19T08:01:20.000Z,20
2023-01-19T08:04:48.000Z,20.2
2023-01-19T08:08:16.000Z,18.9
2023-01-19T08:11:44.000Z,18.4
2023-01-19T08:15:12.000Z,17.2
2023-01-19T08:18:01.000Z,16.7
2023-01-19T08:21:30.000Z,18
2023-01-19T08:24:58.000Z,17.5
2023-01-19T08:28:26.000Z,17.9
2023-01-19T08:31:54.000Z,16.1
2023-01-19T08:35:22.000Z,16.4
2023-01-19T08:38:50.000Z,15.4
2023-01-19T08:42:18.000Z,14.9
2023-01-19T08:45:46.000Z,16.4
2023-01-19T08:49:14.000Z,16.1
2023-01-19T08:52:41.000Z,16.4
2023-01-19T08:55:30.000Z,19.2
2023-01-19T08:58:58.000Z,17
2023-01-19T09:02:31.000Z,16.4
2023-01-19T09:05:59.000Z,17.3
2023-01-19T09:09:31.000Z,19.3
2023-01-19T09:12:59.000Z,18.1
2023-01-19T09:16:27.000Z,19
2023-01-19T09:19:56.000Z,17.1
2023-01-19T09:23:23.000Z,16.9
2023-01-19T09:26:52.000Z,19.2
2023-01-19T09:30:20.000Z,18.4
2023-01-19T09:33:09.000Z,17.5
2023-01-19T09:36:37.000Z,17.8
2023-01-19T09:40:05.000Z,17.3
2023-01-19T09:43:33.000Z,16.6
2023-01-19T09:47:01.000Z,15.9
2023-01-19T09:50:29.000Z,15.7
2023-01-19T09:53:57.000Z,13.7
2023-01-19T09:57:26.000Z,16.2
2023-01-19T10:00:54.000Z,15.4
2023-01-19T10:04:23.000Z,11.2
2023-01-19T10:07:51.000Z,16.9
2023-01-19T10:10:41.000Z,15.6
2023-01-19T10:14:11.000Z,17.3
2023-01-19T10:17:44.000Z,16.1
2023-01-19T10:21:17.000Z,14.2
2023-01-19T10:24:46.000Z,15.2
2023-01-19T10:28:15.000Z,14.3
2023-01-19T10:31:44.000Z,12.4
2023-01-19T10:35:12.000Z,18
2023-01-19T10:38:41.000Z,11.9
2023-01-19T10:42:09.000Z,11.2
2023-01-19T10:45:37.000Z,12.6
2023-01-19T10:48:26.000Z,11
2023-01-19T10:51:54.000Z,12.6
2023-01-19T10:55:22.000Z,12.2
2023-01-19T10:58:50.000Z,12.5
2023-01-19T11:02:18.000Z,16.2
2023-01-19T11:05:46.000Z,10.8
2023-01-19T11:09:14.000Z,10.7
2023-01-19T11:12:45.000Z,10.1
2023-01-19T11:16:13.000Z,53.9
2023-01-19T11:19:41.000Z,11.9
2023-01-19T11:23:09.000Z,11.7
2023-01-19T11:25:58.000Z,11.2
2023-01-19T11:29:26.000Z,10.5
2023-01-19T11:32:54.000Z,10.8
2023-01-19T11:36:23.000Z,10.7
2023-01-19T11:39:50.000Z,11.2
2023-01-19T11:43:18.000Z,10.9
2023-01-19T11:46:50.000Z,10.8
2023-01-19T11:50:18.000Z,10.4
2023-01-19T11:53:46.000Z,12.7
2023-01-19T11:57:14.000Z,9.8
2023-01-19T12:00:43.000Z,10.4
2023-01-19T12:03:33.000Z,9.4
2023-01-19T12:07:01.000Z,8.8
2023-01-19T12:10:29.000Z,8
2023-01-19T12:13:58.000Z,9.1
2023-01-19T12:17:26.000Z,8.1
2023-01-19T12:20:54.000Z,8.5
2023-01-19T12:24:25.000Z,8.4
2023-01-19T12:27:53.000Z,8.4
2023-01-19T12:31:21.000Z,7.7
2023-01-19T12:34:50.000Z,8.4
2023-01-19T12:38:21.000Z,8.7
2023-01-19T12:41:11.000Z,8
2023-01-19T12:44:42.000Z,8
2023-01-19T12:48:15.000Z,8.4
2023-01-19T12:51:45.000Z,9.3
2023-01-19T12:55:13.000Z,9.4
2023-01-19T12:58:45.000Z,8.7
2023-01-19T13:02:19.000Z,11.9
2023-01-19T13:05:52.000Z,9.1
2023-01-19T13:09:25.000Z,9.7
2023-01-19T13:12:57.000Z,9.3
2023-01-19T13:16:30.000Z,9.4
2023-01-19T13:19:21.000Z,9.7
2023-01-19T13:22:54.000Z,10.1
2023-01-19T13:26:26.000Z,9.7
2023-01-19T13:29:59.000Z,9.7
2023-01-19T13:33:32.000Z,8.6
2023-01-19T13:37:06.000Z,9.1
2023-01-19T13:40:38.000Z,9.2
2023-01-19T13:44:11.000Z,9.7
2023-01-19T13:47:45.000Z,9
2023-01-19T13:51:18.000Z,8.3
2023-01-19T13:54:51.000Z,8.4
2023-01-19T13:57:46.000Z,9
2023-01-19T14:01:19.000Z,8
2023-01-19T14:04:55.000Z,8
2023-01-19T14:08:27.000Z,7.7
2023-01-19T14:12:00.000Z,7.3
2023-01-19T14:15:33.000Z,7.8
2023-01-19T14:19:06.000Z,8.2
2023-01-19T14:22:38.000Z,7
2023-01-19T14:26:11.000Z,6.9
2023-01-19T14:29:44.000Z,6.3
2023-01-19T14:33:16.000Z,6.4
2023-01-19T14:36:08.000Z,6.8
2023-01-19T14:39:43.000Z,7.5
2023-01-19T14:43:15.000Z,6.1
2023-01-19T14:46:48.000Z,12
2023-01-19T14:50:21.000Z,7.1
2023-01-19T14:53:53.000Z,7
2023-01-19T14:57:26.000Z,7.2
2023-01-19T15:00:58.000Z,6.7
2023-01-19T15:04:30.000Z,7.2
2023-01-19T15:08:03.000Z,5.5
2023-01-19T15:11:33.000Z,8.3
2023-01-19T15:14:22.000Z,10.1
2023-01-19T15:17:53.000Z,6
2023-01-19T15:21:21.000Z,8.9
2023-01-19T15:24:50.000Z,11.3
2023-01-19T15:28:18.000Z,8.6
2023-01-19T15:31:46.000Z,6.5
2023-01-19T15:35:14.000Z,9.7
2023-01-19T15:38:43.000Z,3.9
2023-01-19T15:42:11.000Z,5.8
2023-01-19T15:45:39.000Z,3.7
2023-01-19T15:49:07.000Z,3.4
2023-01-19T15:51:56.000Z,3.3
2023-01-19T15:55:24.000Z,3.1
2023-01-19T15:58:53.000Z,3.2
2023-01-19T16:02:21.000Z,3
2023-01-19T16:05:49.000Z,3.3
2023-01-19T16:09:17.000Z,7.8
2023-01-19T16:12:45.000Z,13.1
2023-01-19T16:16:14.000Z,7.6
2023-01-19T16:19:42.000Z,10.3
2023-01-19T16:23:10.000Z,7.2
2023-01-19T16:26:38.000Z,5.8
2023-01-19T16:29:28.000Z,6.2
2023-01-19T16:32:56.000Z,4.7
2023-01-19T16:36:24.000Z,6.6
2023-01-19T16:39:52.000Z,6.4
2023-01-19T16:43:20.000Z,6.8
2023-01-19T16:46:48.000Z,6.9
2023-01-19T16:50:16.000Z,5.8
2023-01-19T16:53:44.000Z,5.2
2023-01-19T16:57:13.000Z,6
2023-01-19T17:00:41.000Z,5.2
2023-01-19T17:04:09.000Z,4.4
2023-01-19T17:06:58.000Z,4.6
2023-01-19T17:10:26.000Z,5.4
2023-01-19T17:13:54.000Z,5.4
2023-01-19T17:17:22.000Z,8.4
2023-01-19T17:20:50.000Z,8.6
2023-01-19T17:24:18.000Z,14.1
2023-01-19T17:27:46.000Z,5.6
2023-01-19T17:31:14.000Z,7.9
2023-01-19T17:34:42.000Z,7.8
2023-01-19T17:38:10.000Z,7.9
2023-01-19T17:41:38.000Z,10.1
2023-01-19T17:44:29.000Z,10.8
2023-01-19T17:47:58.000Z,7.8
2023-01-19T17:51:25.000Z,9.3
2023-01-19T17:54:53.000Z,7
2023-01-19T17:58:21.000Z,11.7
2023-01-19T18:01:49.000Z,13.5
2023-01-19T18:05:17.000Z,14
2023-01-19T18:08:45.000Z,10.1
2023-01-19T18:12:13.000Z,13.5
2023-01-19T18:15:41.000Z,13.1
2023-01-19T18:19:10.000Z,11.2
2023-01-19T18:21:59.000Z,13.3
2023-01-19T18:25:27.000Z,12.5
2023-01-19T18:28:55.000Z,14.2
2023-01-19T18:32:22.000Z,16.4
2023-01-19T18:35:50.000Z,18.6
2023-01-19T18:39:18.000Z,18.1
2023-01-19T18:42:46.000Z,29.5
2023-01-19T18:46:14.000Z,33.9
2023-01-19T18:49:42.000Z,23.1
2023-01-19T18:53:10.000Z,28.9
2023-01-19T18:56:38.000Z,14.3
2023-01-19T18:59:27.000Z,10.5
2023-01-19T19:02:55.000Z,15.7
2023-01-19T19:06:23.000Z,11.2
2023-01-19T19:09:51.000Z,6.8
2023-01-19T19:13:19.000Z,6.6
2023-01-19T19:16:47.000Z,6.8
2023-01-19T19:20:15.000Z,6.2
2023-01-19T19:23:43.000Z,5.4
2023-01-19T19:27:11.000Z,5.4
2023-01-19T19:30:39.000Z,7
2023-01-19T19:34:07.000Z,8.7
2023-01-19T19:40:31.000Z,11
2023-01-19T19:43:59.000Z,11.5
2023-01-19T19:47:27.000Z,10.8
2023-01-19T19:50:55.000Z,9.2
2023-01-19T19:54:38.000Z,8.4
2023-01-19T19:58:06.000Z,9.5
2023-01-19T20:01:34.000Z,8.7
2023-01-19T20:05:02.000Z,9
2023-01-19T20:08:30.000Z,9.5
2023-01-19T20:11:58.000Z,8.7
2023-01-19T20:15:26.000Z,11.7
2023-01-19T20:18:15.000Z,10.1
2023-01-19T20:21:43.000Z,6.7
2023-01-19T20:25:11.000Z,6.6
2023-01-19T20:28:39.000Z,6.2
2023-01-19T20:32:07.000Z,5.6
2023-01-19T20:35:35.000Z,7.2
2023-01-19T20:39:03.000Z,8
2023-01-19T20:42:31.000Z,6
2023-01-19T20:45:59.000Z,8.5
2023-01-19T20:49:27.000Z,16
2023-01-19T20:52:55.000Z,17.7
2023-01-19T20:55:44.000Z,12.8
2023-01-19T20:59:12.000Z,18.2
2023-01-19T21:02:40.000Z,15.8
2023-01-19T21:06:08.000Z,18.2
2023-01-19T21:09:36.000Z,18.3
2023-01-19T21:13:04.000Z,12.1
2023-01-19T21:16:32.000Z,11.7
2023-01-19T21:20:00.000Z,15.1
2023-01-19T21:23:28.000Z,13.7
2023-01-19T21:26:56.000Z,12
2023-01-19T21:30:24.000Z,14.1
2023-01-19T21:33:13.000Z,13.8
2023-01-19T21:36:41.000Z,12.9
2023-01-19T21:40:09.000Z,13.8
2023-01-19T21:43:37.000Z,13.4
2023-01-19T21:47:05.000Z,13.7
2023-01-19T21:50:33.000Z,12.8
2023-01-19T21:54:01.000Z,11.4
2023-01-19T21:57:28.000Z,9.7
2023-01-19T22:00:56.000Z,9.2
2023-01-19T22:04:34.000Z,8.7
2023-01-19T22:08:02.000Z,10.2
2023-01-19T22:14:20.000Z,12
2023-01-19T22:17:48.000Z,8.4
2023-01-19T22:21:16.000Z,9.1
2023-01-19T22:24:44.000Z,8.4
2023-01-19T22:28:11.000Z,9.3
2023-01-19T22:31:39.000Z,10.4
2023-01-19T22:35:07.000Z,9.8
2023-01-19T22:38:36.000Z,12
2023-01-19T22:42:04.000Z,10.3
2023-01-19T22:45:31.000Z,10.1
2023-01-19T22:48:59.000Z,11.2
2023-01-19T22:51:49.000Z,13.8
2023-01-19T22:55:17.000Z,14.9
2023-01-19T22:58:45.000Z,18.4
2023-01-19T23:02:13.000Z,15.2
2023-01-19T23:05:41.000Z,16.3
2023-01-19T23:09:09.000Z,13.1
2023-01-19T23:12:37.000Z,11.4
2023-01-19T23:16:05.000Z,12.2
2023-01-19T23:19:33.000Z,12.4
2023-01-19T23:23:01.000Z,11.8
2023-01-19T23:26:29.000Z,15.8
2023-01-19T23:29:18.000Z,14.4
2023-01-19T23:32:46.000Z,12.1
2023-01-19T23:36:14.000Z,18.7
2023-01-19T23:39:42.000Z,16.5
2023-01-19T23:43:10.000Z,18.2
2023-01-19T23:46:38.000Z,18.3
2023-01-19T23:50:05.000Z,19.8
2023-01-19T23:53:33.000Z,19.4
2023-01-19T23:57:01.000Z,16.3
